Ballardsville, Kentucky
Current Conditions -  °F | °C
As of 1:53 PM on Tuesday 21 Oct 2014 (Local Time) from KLOU Reporting Station
Broken Clouds Broken Clouds  
Wind Chill: 60°   Ceiling: 5000
Heat Index: 60°   Visibility: 10mi
Dew Point: 41°   Wind: 9mph
Humidity: 49%   Direction: 320°NW
Pressure: 30.07"   Gusts: 17mph
Location:  38.342°N, 85.4306°W
Report Text: KLOU 211753Z 32008G15KT 10SM BKN050 16/05 A3007 RMK AO2 SLP181 T01560050 10156 20083 58003
Loading
Personal Weather Stations






























Interactive Weather Map
Tropical Storm Tracking
New forecast layout! Learn more

10-Day Weather Forecast

Advertisements
Track Severe Weather on mobile